Time;durP1;ratioP1;P1;durP2;ratioP2;P2;SDS_P1;SDS_P2;PMS_P1;PMS_P2;Temp;Humidity;BMP_temperature;BMP_pressure;BME280_temperature;BME280_humidity;BME280_pressure;Samples;Min_cycle;Max_cycle;Signal;HPM_P1;HPM_P2
2023/05/23 00:02:07;;;;;;;14.67;11.87;;;;;;;;;;12580940;23;20456;-83
2023/05/23 00:07:09;;;;;;;14.85;11.50;;;;;;;;;;12607463;23;20373;-84
2023/05/23 00:12:12;;;;;;;14.27;12.05;;;;;;;;;;12607210;23;20381;-84
2023/05/23 00:17:16;;;;;;;14.90;12.33;;;;;;;;;;12607261;23;20414;-84
2023/05/23 00:22:18;;;;;;;14.03;11.10;;;;;;;;;;12606863;23;20860;-84
2023/05/23 00:27:21;;;;;;;15.38;11.25;;;;;;;;;;12610147;23;20679;-84
2023/05/23 00:32:24;;;;;;;17.83;11.52;;;;;;;;;;12610775;23;20369;-84
2023/05/23 00:37:27;;;;;;;13.33;11.23;;;;;;;;;;12610596;23;20427;-84
2023/05/23 00:42:31;;;;;;;13.93;11.35;;;;;;;;;;12610212;23;20392;-84
2023/05/23 00:47:35;;;;;;;14.83;11.73;;;;;;;;;;12610191;23;20373;-84
2023/05/23 00:52:38;;;;;;;14.30;12.23;;;;;;;;;;12611001;23;20452;-84
2023/05/23 00:57:43;;;;;;;18.23;11.48;;;;;;;;;;12608630;23;20381;-84
2023/05/23 01:02:50;;;;;;;14.33;11.20;;;;;;;;;;12609815;23;20444;-84
2023/05/23 01:07:52;;;;;;;14.77;10.63;;;;;;;;;;12610599;23;20444;-83
2023/05/23 01:13:07;;;;;;;13.98;11.02;;;;;;;;;;12629691;23;20384;-84
2023/05/23 01:18:16;;;;;;;15.30;10.70;;;;;;;;;;12602260;23;20389;-84
2023/05/23 01:23:44;;;;;;;12.77;10.00;;;;;;;;;;12605245;23;20392;-84
2023/05/23 01:28:55;;;;;;;15.43;10.68;;;;;;;;;;12589769;23;20657;-84
2023/05/23 01:33:57;;;;;;;13.30;10.33;;;;;;;;;;12607083;23;20706;-84
2023/05/23 01:39:00;;;;;;;12.20;9.07;;;;;;;;;;12607765;23;20710;-84
2023/05/23 01:44:04;;;;;;;10.90;8.95;;;;;;;;;;12608311;23;20939;-84
2023/05/23 01:49:10;;;;;;;10.40;9.10;;;;;;;;;;12609813;23;20433;-84
2023/05/23 01:54:13;;;;;;;10.48;8.75;;;;;;;;;;12608618;23;20492;-84
2023/05/23 01:59:17;;;;;;;11.60;8.70;;;;;;;;;;12607745;23;20376;-84
2023/05/23 02:04:19;;;;;;;10.47;8.87;;;;;;;;;;12609509;23;20425;-84
2023/05/23 02:09:21;;;;;;;12.48;9.27;;;;;;;;;;12608448;23;20369;-84
2023/05/23 02:14:27;;;;;;;10.27;8.57;;;;;;;;;;12628689;23;20365;-84
2023/05/23 02:19:29;;;;;;;12.85;9.10;;;;;;;;;;12608034;23;21753;-84
2023/05/23 02:24:31;;;;;;;11.90;9.05;;;;;;;;;;12608580;23;20867;-84
2023/05/23 02:29:35;;;;;;;11.55;9.50;;;;;;;;;;12608324;23;20368;-84
2023/05/23 02:34:39;;;;;;;13.63;9.47;;;;;;;;;;12607413;23;20405;-84
2023/05/23 02:39:41;;;;;;;11.75;9.55;;;;;;;;;;12660695;23;20855;-84
2023/05/23 02:44:45;;;;;;;10.73;9.45;;;;;;;;;;12667194;23;20712;-84
2023/05/23 02:49:48;;;;;;;13.20;9.83;;;;;;;;;;12668384;23;20402;-84
2023/05/23 02:54:50;;;;;;;12.97;9.77;;;;;;;;;;12668403;23;20375;-84
2023/05/23 02:59:54;;;;;;;11.40;9.32;;;;;;;;;;12670341;23;20426;-84
2023/05/23 03:04:57;;;;;;;10.97;9.13;;;;;;;;;;12668423;23;21051;-84
2023/05/23 03:10:01;;;;;;;14.87;9.77;;;;;;;;;;12667652;23;20367;-84
2023/05/23 03:15:06;;;;;;;11.90;9.80;;;;;;;;;;12667987;23;20431;-84
2023/05/23 03:20:11;;;;;;;13.80;9.73;;;;;;;;;;12667415;23;20399;-84
2023/05/23 03:25:15;;;;;;;13.05;9.45;;;;;;;;;;12668137;23;20458;-84
2023/05/23 03:30:19;;;;;;;13.02;10.30;;;;;;;;;;12688305;23;20379;-84
2023/05/23 03:35:21;;;;;;;12.00;9.25;;;;;;;;;;12667164;23;20920;-84
2023/05/23 03:40:23;;;;;;;12.70;9.57;;;;;;;;;;12667727;23;20886;-84
2023/05/23 03:45:27;;;;;;;11.15;8.98;;;;;;;;;;12669032;23;20391;-84
2023/05/23 03:50:30;;;;;;;10.23;8.45;;;;;;;;;;12666994;23;20367;-84
2023/05/23 03:55:32;;;;;;;13.98;8.93;;;;;;;;;;12667053;23;20367;-84
2023/05/23 04:00:36;;;;;;;10.40;8.93;;;;;;;;;;12671473;23;20371;-84
2023/05/23 04:05:38;;;;;;;13.30;9.75;;;;;;;;;;12671471;23;20386;-84
2023/05/23 04:10:41;;;;;;;14.10;10.75;;;;;;;;;;12672358;23;20383;-84
2023/05/23 04:15:46;;;;;;;14.93;10.88;;;;;;;;;;12671954;23;20434;-84
2023/05/23 04:20:49;;;;;;;15.32;11.02;;;;;;;;;;12672394;23;20426;-84
2023/05/23 04:25:51;;;;;;;16.73;12.10;;;;;;;;;;12671619;23;20395;-84
2023/05/23 04:30:55;;;;;;;15.00;10.90;;;;;;;;;;12670949;23;20809;-84
2023/05/23 04:35:57;;;;;;;15.07;10.13;;;;;;;;;;12670790;23;20406;-84
2023/05/23 04:40:59;;;;;;;13.15;10.00;;;;;;;;;;12669542;23;20671;-83
2023/05/23 04:46:03;;;;;;;13.50;10.53;;;;;;;;;;12667320;23;20489;-84
2023/05/23 04:51:06;;;;;;;14.50;10.60;;;;;;;;;;12670764;23;20435;-84
2023/05/23 04:56:08;;;;;;;15.70;10.95;;;;;;;;;;12668256;23;20427;-84
2023/05/23 05:01:12;;;;;;;16.55;11.75;;;;;;;;;;12668936;23;20449;-85
2023/05/23 05:06:15;;;;;;;15.03;11.20;;;;;;;;;;12669431;23;20394;-85
2023/05/23 05:11:17;;;;;;;18.20;10.63;;;;;;;;;;12667843;23;20371;-85
2023/05/23 05:16:21;;;;;;;13.73;10.85;;;;;;;;;;12668895;23;20883;-85
2023/05/23 05:21:24;;;;;;;12.48;11.00;;;;;;;;;;12668081;23;20375;-85
2023/05/23 05:26:26;;;;;;;14.20;10.57;;;;;;;;;;12667531;23;20446;-85
2023/05/23 05:31:31;;;;;;;15.40;10.23;;;;;;;;;;12660001;23;20716;-86
2023/05/23 05:36:34;;;;;;;14.63;9.30;;;;;;;;;;12660620;23;20371;-85
2023/05/23 05:41:36;;;;;;;12.60;9.10;;;;;;;;;;12664144;23;20681;-84
2023/05/23 05:46:40;;;;;;;12.20;9.57;;;;;;;;;;12662621;23;20383;-85
2023/05/23 05:51:42;;;;;;;13.10;9.70;;;;;;;;;;12662712;23;20930;-85
2023/05/23 05:56:45;;;;;;;12.07;8.27;;;;;;;;;;12666099;23;20422;-85
2023/05/23 06:01:50;;;;;;;13.47;8.80;;;;;;;;;;12667268;23;20410;-85
2023/05/23 06:06:52;;;;;;;15.82;9.70;;;;;;;;;;12666936;23;20459;-85
2023/05/23 06:11:54;;;;;;;12.93;9.95;;;;;;;;;;12666213;23;20371;-85
2023/05/23 06:16:58;;;;;;;12.93;8.70;;;;;;;;;;12666471;23;20442;-85
2023/05/23 06:22:00;;;;;;;9.85;7.45;;;;;;;;;;12663272;23;20434;-85
2023/05/23 06:27:03;;;;;;;10.52;7.32;;;;;;;;;;12657303;23;20378;-85
2023/05/23 06:32:07;;;;;;;11.40;6.78;;;;;;;;;;12666147;23;20367;-84
2023/05/23 06:37:10;;;;;;;11.95;7.25;;;;;;;;;;12667031;23;20387;-85
2023/05/23 06:42:12;;;;;;;10.00;7.30;;;;;;;;;;12666693;23;20375;-85
2023/05/23 06:47:15;;;;;;;7.60;6.80;;;;;;;;;;12665669;23;21694;-85
2023/05/23 06:52:18;;;;;;;10.57;7.03;;;;;;;;;;12666344;23;20950;-85
2023/05/23 06:57:20;;;;;;;7.18;5.95;;;;;;;;;;12664083;23;20408;-85
2023/05/23 07:02:24;;;;;;;8.38;6.60;;;;;;;;;;12666585;23;20371;-85
2023/05/23 07:07:26;;;;;;;11.88;7.25;;;;;;;;;;12666650;23;20375;-85
2023/05/23 07:12:29;;;;;;;7.43;6.60;;;;;;;;;;12667012;23;20363;-84
2023/05/23 07:17:32;;;;;;;10.25;6.63;;;;;;;;;;12668412;23;20431;-85
2023/05/23 07:22:35;;;;;;;8.48;6.47;;;;;;;;;;12667244;23;20383;-85
2023/05/23 07:27:37;;;;;;;8.90;7.07;;;;;;;;;;12666570;23;20426;-84
2023/05/23 07:32:41;;;;;;;8.07;6.30;;;;;;;;;;12667457;23;20519;-85
2023/05/23 07:37:43;;;;;;;9.00;6.63;;;;;;;;;;12667144;23;20375;-85
2023/05/23 07:42:46;;;;;;;8.27;5.68;;;;;;;;;;12665993;23;20379;-84
2023/05/23 07:47:50;;;;;;;7.53;6.65;;;;;;;;;;12666572;23;20367;-85
2023/05/23 07:52:53;;;;;;;8.93;6.25;;;;;;;;;;12667208;23;20686;-85
2023/05/23 07:57:56;;;;;;;8.10;6.30;;;;;;;;;;12665769;23;20395;-85
2023/05/23 08:03:00;;;;;;;6.97;6.28;;;;;;;;;;12666613;23;20462;-85
2023/05/23 08:08:02;;;;;;;9.20;6.57;;;;;;;;;;12665812;23;20535;-85
2023/05/23 08:13:05;;;;;;;8.73;6.88;;;;;;;;;;12666517;23;20414;-85
2023/05/23 08:18:10;;;;;;;8.10;6.43;;;;;;;;;;12667119;23;20466;-85
2023/05/23 08:23:12;;;;;;;7.23;6.20;;;;;;;;;;12665892;23;20947;-85
2023/05/23 08:28:15;;;;;;;7.93;6.18;;;;;;;;;;12665991;23;20441;-85
2023/05/23 08:33:18;;;;;;;7.82;6.00;;;;;;;;;;12665493;23;20443;-86
2023/05/23 08:38:21;;;;;;;13.90;7.13;;;;;;;;;;12631424;23;20456;-86
2023/05/23 08:43:24;;;;;;;9.40;6.17;;;;;;;;;;12604867;23;20928;-85
2023/05/23 08:48:29;;;;;;;9.88;7.65;;;;;;;;;;12609121;23;20417;-85
2023/05/23 08:53:32;;;;;;;8.65;7.55;;;;;;;;;;12608714;23;20904;-85
2023/05/23 08:58:37;;;;;;;9.63;7.57;;;;;;;;;;12608553;23;20444;-85
2023/05/23 09:03:42;;;;;;;18.57;10.47;;;;;;;;;;12608966;23;20956;-85
2023/05/23 09:08:45;;;;;;;14.98;9.30;;;;;;;;;;12609408;23;20435;-84
2023/05/23 09:13:48;;;;;;;11.25;8.55;;;;;;;;;;12607434;23;20385;-85
2023/05/23 09:18:52;;;;;;;7.60;5.82;;;;;;;;;;12608272;23;20447;-85
2023/05/23 09:23:55;;;;;;;7.82;6.00;;;;;;;;;;12629304;23;20933;-85
2023/05/23 09:28:59;;;;;;;12.07;5.97;;;;;;;;;;12607015;23;20373;-85
2023/05/23 09:34:03;;;;;;;11.40;5.93;;;;;;;;;;12606850;23;20365;-84
2023/05/23 09:39:05;;;;;;;6.40;5.73;;;;;;;;;;12652645;23;20379;-85
2023/05/23 09:44:09;;;;;;;8.77;6.28;;;;;;;;;;12669210;23;20390;-85
2023/05/23 09:49:21;;;;;;;7.28;5.93;;;;;;;;;;12678325;23;20438;-85
2023/05/23 09:54:23;;;;;;;8.73;6.07;;;;;;;;;;12669318;23;20371;-85
2023/05/23 09:59:28;;;;;;;10.77;6.00;;;;;;;;;;12668831;23;20902;-85
2023/05/23 10:04:35;;;;;;;6.60;5.50;;;;;;;;;;12669332;23;20395;-85
2023/05/23 10:09:40;;;;;;;7.30;5.88;;;;;;;;;;12669070;23;20407;-85
2023/05/23 10:14:49;;;;;;;10.15;6.22;;;;;;;;;;12668895;23;20459;-85
2023/05/23 10:19:58;;;;;;;8.35;5.68;;;;;;;;;;12668101;23;20722;-85
2023/05/23 10:25:01;;;;;;;6.85;5.60;;;;;;;;;;12667647;23;20395;-85
2023/05/23 10:30:04;;;;;;;7.13;5.60;;;;;;;;;;12667858;23;20400;-85
2023/05/23 10:35:15;;;;;;;7.13;5.57;;;;;;;;;;12688252;23;20367;-85
2023/05/23 10:40:24;;;;;;;7.03;5.78;;;;;;;;;;12667109;23;20390;-85
2023/05/23 10:45:26;;;;;;;7.07;5.68;;;;;;;;;;12668913;23;20445;-85
2023/05/23 10:50:35;;;;;;;6.00;5.40;;;;;;;;;;12687700;23;20375;-84
2023/05/23 10:55:38;;;;;;;9.45;5.78;;;;;;;;;;12667350;23;20363;-86
2023/05/23 11:00:51;;;;;;;8.60;5.50;;;;;;;;;;12668087;23;20375;-85
2023/05/23 11:05:55;;;;;;;7.03;5.78;;;;;;;;;;12668637;23;20499;-85
2023/05/23 11:11:00;;;;;;;11.77;5.25;;;;;;;;;;12666152;23;20874;-85
2023/05/23 11:16:24;;;;;;;9.70;5.73;;;;;;;;;;12667846;23;20371;-85
2023/05/23 11:21:30;;;;;;;6.47;5.50;;;;;;;;;;12663340;23;20488;-85
2023/05/23 11:26:33;;;;;;;7.25;5.63;;;;;;;;;;12657603;23;20450;-85
2023/05/23 11:31:39;;;;;;;8.93;5.80;;;;;;;;;;12658424;23;20465;-85
2023/05/23 11:36:43;;;;;;;8.93;5.65;;;;;;;;;;12656895;23;20434;-84
2023/05/23 11:41:45;;;;;;;10.30;5.85;;;;;;;;;;12655701;23;20415;-83
2023/05/23 11:46:59;;;;;;;8.68;5.50;;;;;;;;;;12655630;23;20399;-84
2023/05/23 11:52:03;;;;;;;9.68;6.15;;;;;;;;;;12655507;23;20906;-84
2023/05/23 11:57:06;;;;;;;6.68;5.90;;;;;;;;;;12654545;23;20415;-84
2023/05/23 12:02:08;;;;;;;7.60;6.03;;;;;;;;;;12658339;23;20386;-85
2023/05/23 12:07:12;;;;;;;10.37;6.30;;;;;;;;;;12663964;23;20391;-86
2023/05/23 12:12:15;;;;;;;8.32;5.55;;;;;;;;;;12662272;23;20383;-85
2023/05/23 12:17:18;;;;;;;7.17;5.70;;;;;;;;;;12663367;23;20375;-85
2023/05/23 12:22:24;;;;;;;7.63;5.32;;;;;;;;;;12666937;23;20408;-86
2023/05/23 12:27:28;;;;;;;11.00;6.63;;;;;;;;;;12664596;23;20759;-85
2023/05/23 12:32:31;;;;;;;7.90;5.10;;;;;;;;;;12666855;23;20604;-85
2023/05/23 12:37:35;;;;;;;8.73;5.67;;;;;;;;;;12665076;23;20387;-85
2023/05/23 12:42:50;;;;;;;6.70;5.50;;;;;;;;;;12666026;23;20371;-85
2023/05/23 12:47:52;;;;;;;6.85;5.40;;;;;;;;;;12666123;23;20843;-85
2023/05/23 12:52:56;;;;;;;11.02;6.07;;;;;;;;;;12666473;23;20374;-85
2023/05/23 12:57:58;;;;;;;9.40;5.40;;;;;;;;;;12664910;23;20367;-86
2023/05/23 13:03:01;;;;;;;7.20;5.35;;;;;;;;;;12667291;23;20429;-85
2023/05/23 13:08:05;;;;;;;15.98;5.25;;;;;;;;;;12668751;23;20443;-85
2023/05/23 13:13:07;;;;;;;8.52;5.15;;;;;;;;;;12666230;23;20438;-85
2023/05/23 13:18:10;;;;;;;8.75;5.05;;;;;;;;;;12668056;23;20421;-85
2023/05/23 13:23:14;;;;;;;8.60;5.40;;;;;;;;;;12688365;23;20363;-85
2023/05/23 13:28:16;;;;;;;6.93;5.18;;;;;;;;;;12668208;23;20449;-85
2023/05/23 13:33:20;;;;;;;6.25;4.43;;;;;;;;;;12668370;23;20375;-85
2023/05/23 13:38:26;;;;;;;6.28;4.78;;;;;;;;;;12662832;23;20406;-84
2023/05/23 13:43:28;;;;;;;6.78;5.10;;;;;;;;;;12662011;23;20375;-84
2023/05/23 13:48:30;;;;;;;10.70;5.57;;;;;;;;;;12668423;23;20457;-84
2023/05/23 13:53:34;;;;;;;7.30;5.20;;;;;;;;;;12665754;23;20446;-83
2023/05/23 13:58:37;;;;;;;5.80;5.20;;;;;;;;;;12667564;23;20363;-83
2023/05/23 14:03:39;;;;;;;9.23;5.60;;;;;;;;;;12666497;23;20371;-83
2023/05/23 14:08:43;;;;;;;7.00;5.27;;;;;;;;;;12666016;23;20390;-83
2023/05/23 14:13:45;;;;;;;8.07;5.28;;;;;;;;;;12665779;23;20379;-83
2023/05/23 14:18:47;;;;;;;11.25;4.97;;;;;;;;;;12667581;23;20375;-83
2023/05/23 14:23:51;;;;;;;19.42;6.13;;;;;;;;;;12666104;23;20375;-83
2023/05/23 14:28:53;;;;;;;8.30;5.17;;;;;;;;;;12665661;23;20461;-84
2023/05/23 14:33:56;;;;;;;5.23;4.70;;;;;;;;;;12684585;23;20375;-84
2023/05/23 14:39:00;;;;;;;14.93;5.70;;;;;;;;;;12665571;23;20379;-85
2023/05/23 14:44:03;;;;;;;9.73;5.32;;;;;;;;;;12660750;23;20461;-85
2023/05/23 14:49:05;;;;;;;7.15;4.80;;;;;;;;;;12663500;23;20445;-85
2023/05/23 14:54:09;;;;;;;10.45;5.05;;;;;;;;;;12662918;23;20840;-85
2023/05/23 14:59:12;;;;;;;7.63;5.35;;;;;;;;;;12663069;23;20418;-85
2023/05/23 15:04:14;;;;;;;6.30;5.50;;;;;;;;;;12652428;23;21105;-86
2023/05/23 15:09:18;;;;;;;6.87;5.30;;;;;;;;;;12664299;23;20387;-85
2023/05/23 15:14:21;;;;;;;6.15;5.28;;;;;;;;;;12664475;23;20375;-84
2023/05/23 15:19:24;;;;;;;21.80;6.50;;;;;;;;;;12664450;23;20371;-85
2023/05/23 15:24:27;;;;;;;5.77;5.27;;;;;;;;;;12664410;23;20450;-85
2023/05/23 15:29:32;;;;;;;14.13;5.90;;;;;;;;;;12660350;23;20398;-85
2023/05/23 15:34:35;;;;;;;19.93;5.97;;;;;;;;;;12664155;23;20371;-85
2023/05/23 15:39:39;;;;;;;9.32;5.65;;;;;;;;;;12661740;23;20443;-83
2023/05/23 15:44:41;;;;;;;10.13;5.53;;;;;;;;;;12664230;23;20370;-85
2023/05/23 15:49:44;;;;;;;8.30;5.47;;;;;;;;;;12663166;23;20419;-83
2023/05/23 15:54:47;;;;;;;8.02;5.53;;;;;;;;;;12661920;23;20466;-85
2023/05/23 15:59:50;;;;;;;8.40;5.13;;;;;;;;;;12667358;23;20434;-84
2023/05/23 16:04:52;;;;;;;9.10;5.60;;;;;;;;;;12663834;23;20430;-84
2023/05/23 16:09:56;;;;;;;11.50;5.33;;;;;;;;;;12664827;23;20407;-84
2023/05/23 16:14:59;;;;;;;8.00;5.40;;;;;;;;;;12666347;23;20375;-84
2023/05/23 16:20:03;;;;;;;6.95;5.28;;;;;;;;;;12685469;23;20756;-84
2023/05/23 16:25:08;;;;;;;6.47;5.38;;;;;;;;;;12667123;23;20831;-85
2023/05/23 16:30:11;;;;;;;6.90;5.20;;;;;;;;;;12658909;23;20367;-84
2023/05/23 16:35:13;;;;;;;7.18;5.18;;;;;;;;;;12663700;23;20379;-84
2023/05/23 16:40:17;;;;;;;8.50;6.20;;;;;;;;;;12662573;23;20383;-84
2023/05/23 16:45:19;;;;;;;8.38;5.88;;;;;;;;;;12662102;23;20426;-84
2023/05/23 16:50:21;;;;;;;9.07;6.22;;;;;;;;;;12664337;23;20430;-85
2023/05/23 16:55:25;;;;;;;6.95;5.55;;;;;;;;;;12664171;23;20375;-85
2023/05/23 17:00:28;;;;;;;7.88;5.78;;;;;;;;;;12661561;23;20907;-84
2023/05/23 17:05:30;;;;;;;8.45;4.70;;;;;;;;;;12661421;23;20883;-85
2023/05/23 17:10:35;;;;;;;5.20;3.58;;;;;;;;;;12662765;23;20700;-84
2023/05/23 17:15:37;;;;;;;4.85;3.70;;;;;;;;;;12662254;23;20756;-84
2023/05/23 17:20:40;;;;;;;4.87;3.13;;;;;;;;;;12662291;23;20407;-83
2023/05/23 17:25:44;;;;;;;3.40;3.00;;;;;;;;;;12664235;23;20527;-83
2023/05/23 17:30:46;;;;;;;3.70;3.25;;;;;;;;;;12662158;23;20372;-83
2023/05/23 17:35:48;;;;;;;4.88;3.60;;;;;;;;;;12662830;23;21098;-81
2023/05/23 17:40:52;;;;;;;5.60;3.40;;;;;;;;;;12661978;23;20422;-82
2023/05/23 17:45:54;;;;;;;4.97;3.28;;;;;;;;;;12662987;23;20433;-82
2023/05/23 17:50:56;;;;;;;4.05;3.42;;;;;;;;;;12663563;23;20621;-82
2023/05/23 17:56:00;;;;;;;4.95;3.65;;;;;;;;;;12662473;23;20788;-81
2023/05/23 18:01:02;;;;;;;6.07;3.45;;;;;;;;;;12649576;23;20468;-84
2023/05/23 18:06:05;;;;;;;5.68;3.60;;;;;;;;;;12652532;23;20493;-84
2023/05/23 18:11:09;;;;;;;4.75;3.58;;;;;;;;;;12655013;23;20383;-84
2023/05/23 18:16:11;;;;;;;6.57;4.10;;;;;;;;;;12653153;23;20383;-84
2023/05/23 18:21:14;;;;;;;5.55;4.20;;;;;;;;;;12666496;23;20423;-86
2023/05/23 18:26:18;;;;;;;5.68;4.20;;;;;;;;;;12657353;23;20391;-85
2023/05/23 18:31:23;;;;;;;4.40;3.97;;;;;;;;;;12656556;23;20411;-86
2023/05/23 18:36:26;;;;;;;5.33;3.73;;;;;;;;;;12655414;23;20449;-85
2023/05/23 18:41:30;;;;;;;5.05;3.78;;;;;;;;;;12655144;23;20387;-84
2023/05/23 18:46:32;;;;;;;5.97;3.60;;;;;;;;;;12653476;23;20390;-85
2023/05/23 18:51:35;;;;;;;7.77;3.77;;;;;;;;;;12654476;23;20371;-85
2023/05/23 18:56:39;;;;;;;7.83;3.60;;;;;;;;;;12654901;23;20446;-85
2023/05/23 19:01:41;;;;;;;5.63;3.50;;;;;;;;;;12656125;23;20422;-84
2023/05/23 19:06:45;;;;;;;6.70;4.00;;;;;;;;;;12659059;23;20499;-85
2023/05/23 19:11:48;;;;;;;6.50;4.13;;;;;;;;;;12655510;23;20391;-85
2023/05/23 19:16:51;;;;;;;5.13;3.72;;;;;;;;;;12655084;23;20391;-85
2023/05/23 19:21:54;;;;;;;5.90;3.65;;;;;;;;;;12657513;23;20419;-86
2023/05/23 19:26:58;;;;;;;5.10;3.50;;;;;;;;;;12654156;23;20391;-88
2023/05/23 19:32:01;;;;;;;5.78;3.60;;;;;;;;;;12654399;23;20391;-85
2023/05/23 19:37:03;;;;;;;4.70;3.60;;;;;;;;;;12654752;23;20379;-85
2023/05/23 19:42:08;;;;;;;4.00;3.22;;;;;;;;;;12654339;23;20370;-85
2023/05/23 19:47:10;;;;;;;5.70;3.60;;;;;;;;;;12656572;23;20379;-85
2023/05/23 19:52:13;;;;;;;5.13;2.90;;;;;;;;;;12655373;23;20406;-85
2023/05/23 19:57:17;;;;;;;4.65;3.20;;;;;;;;;;12659443;23;20732;-85
2023/05/23 20:02:20;;;;;;;5.47;3.45;;;;;;;;;;12659838;23;20855;-85
2023/05/23 20:07:24;;;;;;;5.60;3.15;;;;;;;;;;12660032;23;20553;-86
2023/05/23 20:12:28;;;;;;;3.65;3.28;;;;;;;;;;12656925;23;20419;-85
2023/05/23 20:17:32;;;;;;;4.70;3.23;;;;;;;;;;12657768;23;20471;-85
2023/05/23 20:22:36;;;;;;;5.03;3.30;;;;;;;;;;12651524;23;20926;-84
2023/05/23 20:27:40;;;;;;;5.40;3.53;;;;;;;;;;12652613;23;20395;-85
2023/05/23 20:32:44;;;;;;;5.80;3.60;;;;;;;;;;12656750;23;20383;-85
2023/05/23 20:37:49;;;;;;;6.20;3.73;;;;;;;;;;12652873;23;20418;-85
2023/05/23 20:42:53;;;;;;;5.25;3.78;;;;;;;;;;12673746;23;20689;-86
2023/05/23 20:47:55;;;;;;;5.80;3.70;;;;;;;;;;12677563;23;20744;-86
2023/05/23 20:52:58;;;;;;;6.32;3.70;;;;;;;;;;12661226;23;20449;-86
2023/05/23 20:58:01;;;;;;;5.75;3.70;;;;;;;;;;12660663;23;20484;-84
2023/05/23 21:03:04;;;;;;;4.18;3.58;;;;;;;;;;12659196;23;20394;-86
2023/05/23 21:08:06;;;;;;;3.77;3.23;;;;;;;;;;12663915;23;20442;-86
2023/05/23 21:13:10;;;;;;;6.20;3.40;;;;;;;;;;12663964;23;20863;-86
2023/05/23 21:18:12;;;;;;;4.45;2.85;;;;;;;;;;12659729;23;20383;-86
2023/05/23 21:23:14;;;;;;;4.97;3.22;;;;;;;;;;12659003;23;20415;-86
2023/05/23 21:28:19;;;;;;;3.40;2.80;;;;;;;;;;12668525;23;20681;-85
2023/05/23 21:33:21;;;;;;;5.18;3.00;;;;;;;;;;12659647;23;20430;-86
2023/05/23 21:38:24;;;;;;;4.20;3.03;;;;;;;;;;12656377;23;20390;-86
2023/05/23 21:43:27;;;;;;;5.40;3.10;;;;;;;;;;12656849;23;20379;-86
2023/05/23 21:48:30;;;;;;;4.53;3.40;;;;;;;;;;12660077;23;20383;-85
2023/05/23 21:53:32;;;;;;;4.47;3.20;;;;;;;;;;12661243;23;20371;-85
2023/05/23 21:58:36;;;;;;;5.20;2.92;;;;;;;;;;12660438;23;20379;-86
2023/05/23 22:03:38;;;;;;;3.67;3.00;;;;;;;;;;12662725;23;20797;-86
2023/05/23 22:08:40;;;;;;;4.25;3.03;;;;;;;;;;12660549;23;20879;-86
2023/05/23 22:13:45;;;;;;;3.60;3.15;;;;;;;;;;12664180;23;20434;-86
2023/05/23 22:18:49;;;;;;;4.60;3.40;;;;;;;;;;12663980;23;20422;-86
2023/05/23 22:23:51;;;;;;;5.37;2.80;;;;;;;;;;12667601;23;20434;-86
2023/05/23 22:28:56;;;;;;;5.57;2.97;;;;;;;;;;12668359;23;20394;-86
2023/05/23 22:33:58;;;;;;;4.57;3.35;;;;;;;;;;12669137;23;20434;-85
2023/05/23 22:39:03;;;;;;;4.90;3.30;;;;;;;;;;12666767;23;20375;-85
2023/05/23 22:44:07;;;;;;;4.72;3.30;;;;;;;;;;12668991;23;20367;-85
2023/05/23 22:49:10;;;;;;;4.43;3.28;;;;;;;;;;12667831;23;20462;-85
2023/05/23 22:54:12;;;;;;;5.32;3.30;;;;;;;;;;12668486;23;20371;-85
2023/05/23 22:59:15;;;;;;;4.80;3.20;;;;;;;;;;12666857;23;20379;-86
2023/05/23 23:04:22;;;;;;;4.95;3.50;;;;;;;;;;12668091;23;20355;-85
2023/05/23 23:09:24;;;;;;;5.53;3.53;;;;;;;;;;12667902;23;20395;-85
2023/05/23 23:14:28;;;;;;;5.60;4.18;;;;;;;;;;12668230;23;20368;-85
2023/05/23 23:19:34;;;;;;;6.22;4.50;;;;;;;;;;12668706;23;20434;-85
2023/05/23 23:24:36;;;;;;;5.70;4.03;;;;;;;;;;12667725;23;20375;-84
2023/05/23 23:29:40;;;;;;;6.60;4.88;;;;;;;;;;12668572;23;20935;-84
2023/05/23 23:34:42;;;;;;;7.70;5.70;;;;;;;;;;12668102;23;20492;-85
2023/05/23 23:39:44;;;;;;;6.38;5.00;;;;;;;;;;12666515;23;20458;-85
2023/05/23 23:44:48;;;;;;;8.02;5.70;;;;;;;;;;12666663;23;20434;-85
2023/05/23 23:49:51;;;;;;;8.88;6.68;;;;;;;;;;12667058;23;20387;-84
2023/05/23 23:54:53;;;;;;;11.55;6.30;;;;;;;;;;12667305;23;20630;-84
2023/05/23 23:59:57;;;;;;;7.23;6.53;;;;;;;;;;12668406;23;20378;-85
